createdAt,value
2022-09-27T00:02:01.706Z,2.37
2022-09-27T00:04:29.605Z,1.77
2022-09-27T00:06:57.516Z,4.23
2022-09-27T00:09:27.200Z,2.73
2022-09-27T00:11:55.073Z,1.93
2022-09-27T00:14:23.120Z,3.40
2022-09-27T00:16:50.988Z,2.47
2022-09-27T00:19:21.834Z,3.07
2022-09-27T00:21:50.826Z,1.17
2022-09-27T00:24:20.745Z,1.27
2022-09-27T00:26:50.712Z,3.70
2022-09-27T00:29:20.315Z,1.53
2022-09-27T00:31:48.406Z,3.37
2022-09-27T00:34:20.527Z,1.70
2022-09-27T00:36:48.869Z,1.87
2022-09-27T00:39:17.526Z,1.90
2022-09-27T00:41:46.384Z,1.80
2022-09-27T00:44:51.913Z,4.70
2022-09-27T00:47:28.633Z,2.57
2022-09-27T00:50:01.201Z,2.57
2022-09-27T00:52:33.614Z,4.93
2022-09-27T00:55:07.872Z,3.67
2022-09-27T00:57:36.577Z,1.47
2022-09-27T01:00:08.271Z,3.93
2022-09-27T01:02:39.625Z,3.57
2022-09-27T01:05:10.989Z,1.20
2022-09-27T01:07:38.896Z,2.63
2022-09-27T01:10:08.258Z,2.67
2022-09-27T01:12:46.144Z,5.90
2022-09-27T01:15:23.293Z,4.40
2022-09-27T01:18:06.348Z,3.27
2022-09-27T01:21:02.613Z,2.30
2022-09-27T01:23:52.622Z,5.30
2022-09-27T01:26:33.694Z,2.93
2022-09-27T01:29:08.811Z,3.17
2022-09-27T01:31:47.704Z,4.20
2022-09-27T01:34:23.836Z,2.07
2022-09-27T01:36:57.496Z,2.93
2022-09-27T01:39:37.823Z,3.03
2022-09-27T01:42:13.085Z,1.37
2022-09-27T01:44:49.450Z,4.63
2022-09-27T01:47:22.614Z,1.20
2022-09-27T01:49:55.791Z,1.63
2022-09-27T01:52:29.809Z,7.60
2022-09-27T01:55:02.149Z,1.70
2022-09-27T01:57:36.166Z,4.00
2022-09-27T02:00:07.850Z,3.20
2022-09-27T02:02:41.466Z,3.27
2022-09-27T02:05:14.177Z,2.50
2022-09-27T02:07:48.645Z,3.70
2022-09-27T02:10:19.870Z,5.17
2022-09-27T02:12:53.085Z,6.30
2022-09-27T02:15:21.368Z,3.60
2022-09-27T02:17:57.493Z,4.10
2022-09-27T02:20:31.146Z,5.93
2022-09-27T02:23:10.586Z,3.60
2022-09-27T02:25:45.173Z,5.13
2022-09-27T02:28:23.791Z,3.07
2022-09-27T02:30:51.837Z,4.13
2022-09-27T02:33:24.466Z,2.57
2022-09-27T02:35:52.398Z,3.67
2022-09-27T02:38:21.080Z,5.27
2022-09-27T02:40:49.297Z,3.90
2022-09-27T02:43:20.098Z,3.33
2022-09-27T02:45:58.274Z,3.70
2022-09-27T02:48:39.166Z,6.73
2022-09-27T02:51:30.726Z,4.27
2022-09-27T02:54:11.732Z,4.53
2022-09-27T02:56:51.708Z,4.83
2022-09-27T02:59:27.472Z,3.23
2022-09-27T03:02:08.588Z,3.10
2022-09-27T03:04:44.936Z,4.67
2022-09-27T03:07:14.838Z,6.70
2022-09-27T03:09:45.746Z,4.17
2022-09-27T03:12:13.848Z,4.10
2022-09-27T03:14:41.954Z,4.37
2022-09-27T03:17:09.961Z,7.67
2022-09-27T03:19:37.953Z,7.63
2022-09-27T03:22:07.545Z,2.90
2022-09-27T03:24:35.743Z,4.93
2022-09-27T03:27:04.384Z,6.80
2022-09-27T03:29:32.669Z,3.47
2022-09-27T03:32:00.684Z,6.27
2022-09-27T03:34:29.214Z,5.07
2022-09-27T03:36:57.356Z,4.43
2022-09-27T03:39:27.313Z,4.63
2022-09-27T03:41:55.237Z,2.40
2022-09-27T03:44:23.138Z,2.77
2022-09-27T03:46:51.009Z,2.93
2022-09-27T03:49:19.039Z,6.30
2022-09-27T03:51:46.889Z,1.40
2022-09-27T03:54:14.817Z,6.37
2022-09-27T03:56:44.135Z,0.87
2022-09-27T03:59:12.238Z,2.43
2022-09-27T04:01:40.132Z,3.53
2022-09-27T04:04:11.341Z,5.70
2022-09-27T04:06:39.401Z,1.37
2022-09-27T04:09:07.299Z,2.10
2022-09-27T04:11:35.172Z,2.10
2022-09-27T04:14:05.582Z,2.93
2022-09-27T04:16:33.863Z,3.33
2022-09-27T04:19:02.772Z,2.00
2022-09-27T04:21:30.658Z,3.07
2022-09-27T04:23:58.649Z,1.70
2022-09-27T04:26:27.177Z,2.97
2022-09-27T04:28:55.981Z,0.97
2022-09-27T04:31:25.269Z,1.70
2022-09-27T04:33:53.870Z,2.70
2022-09-27T04:36:28.200Z,0.83
2022-09-27T04:38:57.388Z,2.00
2022-09-27T04:41:26.416Z,1.33
2022-09-27T04:43:58.986Z,1.93
2022-09-27T04:46:31.561Z,1.10
2022-09-27T04:49:00.145Z,0.80
2022-09-27T04:51:28.529Z,2.33
2022-09-27T04:53:57.769Z,3.27
2022-09-27T04:56:26.191Z,4.87
2022-09-27T05:01:39.077Z,3.60
2022-09-27T05:04:07.484Z,0.70
2022-09-27T05:06:35.510Z,2.17
2022-09-27T05:09:03.584Z,1.60
2022-09-27T05:11:31.438Z,3.17
2022-09-27T05:13:59.351Z,1.73
2022-09-27T05:16:33.912Z,3.20
2022-09-27T05:19:03.797Z,1.43
2022-09-27T05:21:32.997Z,2.57
2022-09-27T05:24:04.105Z,1.97
2022-09-27T05:26:31.948Z,0.77
2022-09-27T05:29:00.421Z,1.87
2022-09-27T05:31:29.305Z,2.10
2022-09-27T05:33:57.220Z,0.70
2022-09-27T05:36:26.940Z,2.23
2022-09-27T05:38:54.817Z,3.63
2022-09-27T05:41:22.803Z,2.47
2022-09-27T05:43:50.812Z,1.73
2022-09-27T05:46:19.091Z,1.63
2022-09-27T05:48:49.340Z,1.80
2022-09-27T05:51:17.282Z,2.00
2022-09-27T05:53:46.493Z,2.67
2022-09-27T05:56:14.394Z,3.30
2022-09-27T05:58:42.283Z,2.03
2022-09-27T06:01:15.333Z,0.90
2022-09-27T06:03:43.525Z,1.87
2022-09-27T06:06:11.464Z,2.70
2022-09-27T06:08:40.822Z,2.17
2022-09-27T06:11:12.415Z,2.03
2022-09-27T06:13:41.633Z,2.10
2022-09-27T06:16:12.600Z,0.97
2022-09-27T06:18:40.811Z,3.77
2022-09-27T06:21:08.773Z,3.10
2022-09-27T06:23:36.715Z,2.77
2022-09-27T06:26:06.244Z,3.13
2022-09-27T06:28:36.063Z,2.03
2022-09-27T06:31:08.172Z,1.47
2022-09-27T06:33:36.671Z,1.53
2022-09-27T06:36:06.883Z,1.27
2022-09-27T06:38:35.201Z,1.27
2022-09-27T06:41:04.438Z,0.80
2022-09-27T06:43:33.441Z,0.67
2022-09-27T06:46:05.814Z,1.07
2022-09-27T06:48:37.503Z,1.07
2022-09-27T06:51:06.023Z,2.00
2022-09-27T06:53:34.133Z,1.53
2022-09-27T06:56:02.442Z,1.23
2022-09-27T06:58:50.066Z,1.33
2022-09-27T07:01:40.982Z,1.53
2022-09-27T07:04:11.251Z,9.43
2022-09-27T07:06:39.287Z,1.40
2022-09-27T07:09:09.013Z,4.00
2022-09-27T07:11:40.971Z,2.30
2022-09-27T07:14:38.511Z,5.20
2022-09-27T07:17:08.490Z,2.77
2022-09-27T07:19:46.507Z,2.83
2022-09-27T07:22:18.680Z,1.30
2022-09-27T07:27:40.372Z,0.97
2022-09-27T07:30:09.590Z,1.07
2022-09-27T07:32:42.585Z,0.60
2022-09-27T07:35:15.056Z,4.33
2022-09-27T07:37:45.005Z,1.57
2022-09-27T07:40:14.333Z,3.30
2022-09-27T07:42:43.769Z,1.87
2022-09-27T07:45:12.456Z,1.67
2022-09-27T07:47:42.403Z,1.63
2022-09-27T07:50:12.406Z,3.37
2022-09-27T07:52:41.037Z,1.90
2022-09-27T07:55:10.602Z,2.80
2022-09-27T07:57:39.134Z,0.97
2022-09-27T08:00:11.359Z,2.10
2022-09-27T08:02:45.488Z,1.70
2022-09-27T08:05:14.578Z,0.83
2022-09-27T08:07:45.648Z,4.10
2022-09-27T08:10:17.552Z,0.60
2022-09-27T08:12:45.520Z,1.60
2022-09-27T08:15:13.454Z,3.23
2022-09-27T08:17:45.028Z,3.63
2022-09-27T08:20:15.837Z,2.43
2022-09-27T08:22:43.941Z,2.03
2022-09-27T08:25:14.289Z,6.90
2022-09-27T08:27:46.127Z,1.30
2022-09-27T08:30:18.720Z,2.87
2022-09-27T08:32:48.173Z,1.17
2022-09-27T08:35:16.807Z,5.63
2022-09-27T08:37:44.765Z,1.80
2022-09-27T08:40:18.792Z,4.53
2022-09-27T08:42:52.870Z,1.33
2022-09-27T08:45:29.662Z,2.73
2022-09-27T08:48:06.665Z,10.90
2022-09-27T08:50:42.146Z,7.50
2022-09-27T08:53:25.262Z,8.53
2022-09-27T08:55:55.567Z,4.73
2022-09-27T08:58:31.753Z,7.17
2022-09-27T09:01:03.506Z,2.80
2022-09-27T09:03:36.728Z,2.83
2022-09-27T09:06:17.913Z,1.50
2022-09-27T09:08:57.645Z,3.13
2022-09-27T09:11:53.092Z,1.53
2022-09-27T09:15:00.999Z,1.13
2022-09-27T09:17:43.143Z,2.40
2022-09-27T09:22:59.456Z,2.63
2022-09-27T09:25:38.724Z,2.50
2022-09-27T09:28:19.312Z,3.60
2022-09-27T09:30:59.849Z,3.93
2022-09-27T09:33:37.148Z,1.43
2022-09-27T09:36:14.169Z,1.03
2022-09-27T09:38:46.184Z,1.83
2022-09-27T09:41:21.322Z,4.97
2022-09-27T09:43:55.867Z,1.37
2022-09-27T09:46:33.645Z,5.80
2022-09-27T09:49:07.405Z,10.60
2022-09-27T09:51:41.814Z,11.83
2022-09-27T09:54:20.547Z,2.63
2022-09-27T09:56:53.274Z,6.47
2022-09-27T09:59:25.909Z,4.70
2022-09-27T10:01:56.741Z,3.90
2022-09-27T10:04:27.866Z,3.07
2022-09-27T10:06:57.938Z,5.30
2022-09-27T10:09:29.723Z,4.83
2022-09-27T10:11:58.036Z,3.07
2022-09-27T10:14:28.974Z,4.53
2022-09-27T10:17:00.722Z,7.40
2022-09-27T10:19:31.159Z,3.30
2022-09-27T10:22:14.724Z,1.40
2022-09-27T10:24:56.990Z,2.13
2022-09-27T10:27:26.609Z,1.97
2022-09-27T10:30:01.343Z,4.47
2022-09-27T10:32:37.391Z,3.27
2022-09-27T10:35:23.962Z,1.70
2022-09-27T10:37:54.006Z,2.13
2022-09-27T10:40:33.759Z,3.40
2022-09-27T10:43:01.781Z,2.03
2022-09-27T10:45:36.361Z,3.40
2022-09-27T10:48:04.687Z,2.67
2022-09-27T10:50:50.135Z,4.43
2022-09-27T10:53:25.482Z,2.20
2022-09-27T10:55:56.280Z,2.47
2022-09-27T10:58:30.159Z,5.33
2022-09-27T11:01:01.332Z,3.00
2022-09-27T11:03:33.027Z,3.27
2022-09-27T11:06:22.224Z,4.63
2022-09-27T11:08:51.406Z,3.93
2022-09-27T11:11:30.146Z,1.80
2022-09-27T11:14:04.298Z,3.93
2022-09-27T11:16:48.841Z,2.43
2022-09-27T11:19:31.863Z,4.93
2022-09-27T11:22:12.651Z,1.83
2022-09-27T11:24:56.811Z,2.07
2022-09-27T11:27:36.404Z,0.60
2022-09-27T11:30:12.648Z,2.67
2022-09-27T11:33:03.097Z,3.43
2022-09-27T11:35:53.280Z,3.93
2022-09-27T11:38:51.099Z,2.33
2022-09-27T11:41:46.917Z,1.43
2022-09-27T11:44:35.016Z,2.33
2022-09-27T11:47:18.247Z,3.93
2022-09-27T11:50:26.112Z,1.80
2022-09-27T11:53:11.973Z,0.80
2022-09-27T11:55:48.197Z,1.97
2022-09-27T11:58:27.713Z,2.40
2022-09-27T12:01:15.842Z,2.33
2022-09-27T12:04:03.787Z,0.97
2022-09-27T12:06:42.138Z,3.60
2022-09-27T12:09:17.297Z,0.87
2022-09-27T12:11:50.404Z,4.60
2022-09-27T12:14:26.902Z,1.20
2022-09-27T12:16:58.424Z,2.00
2022-09-27T12:19:29.833Z,1.47
2022-09-27T12:22:05.663Z,1.93
2022-09-27T12:24:37.948Z,3.13
2022-09-27T12:27:13.598Z,0.63
2022-09-27T12:29:46.934Z,1.80
2022-09-27T12:32:43.946Z,3.37
2022-09-27T12:35:19.487Z,2.47
2022-09-27T12:37:52.249Z,3.17
2022-09-27T12:40:24.182Z,2.77
2022-09-27T12:43:04.047Z,2.77
2022-09-27T12:45:43.636Z,0.80
2022-09-27T12:48:25.631Z,1.57
2022-09-27T12:50:57.296Z,0.83
2022-09-27T12:53:30.962Z,0.97
2022-09-27T12:59:44.910Z,1.53
2022-09-27T13:03:04.042Z,2.33
2022-09-27T13:06:06.486Z,1.87
2022-09-27T13:09:12.347Z,1.80
2022-09-27T13:11:50.487Z,3.80
2022-09-27T13:14:24.282Z,2.07
2022-09-27T13:16:56.105Z,2.10
2022-09-27T13:19:44.014Z,2.67
2022-09-27T13:22:37.930Z,1.87
2022-09-27T13:25:55.518Z,0.80
2022-09-27T13:28:36.089Z,1.43
2022-09-27T13:31:08.024Z,1.53
2022-09-27T13:34:04.810Z,3.57
2022-09-27T13:36:34.107Z,1.90
2022-09-27T13:39:21.018Z,2.53
2022-09-27T13:42:12.689Z,1.27
2022-09-27T13:45:05.216Z,2.00
2022-09-27T13:47:51.845Z,1.27
2022-09-27T13:50:25.445Z,1.20
2022-09-27T13:53:11.752Z,1.33
2022-09-27T13:55:57.436Z,1.00
2022-09-27T13:59:05.682Z,1.23
2022-09-27T14:01:43.944Z,0.70
2022-09-27T14:04:17.303Z,1.33
2022-09-27T14:06:48.509Z,1.13
2022-09-27T14:09:23.805Z,0.30
2022-09-27T14:11:57.432Z,1.37
2022-09-27T14:14:36.670Z,0.93
2022-09-27T14:17:10.255Z,1.30
2022-09-27T14:19:40.933Z,0.97
2022-09-27T14:22:14.187Z,5.93
2022-09-27T14:24:47.906Z,3.17
2022-09-27T14:27:38.280Z,1.20
2022-09-27T14:30:30.288Z,1.70
2022-09-27T14:33:01.867Z,1.60
2022-09-27T14:35:48.727Z,0.70
2022-09-27T14:38:37.195Z,1.07
2022-09-27T14:41:08.837Z,1.80
2022-09-27T14:43:52.715Z,2.50
2022-09-27T14:46:31.813Z,0.77
2022-09-27T14:49:34.063Z,1.03
2022-09-27T14:52:16.704Z,1.60
2022-09-27T14:54:53.270Z,3.90
2022-09-27T15:00:32.051Z,3.07
2022-09-27T15:03:05.464Z,2.47
2022-09-27T15:05:40.660Z,1.03
2022-09-27T15:08:17.448Z,5.00
2022-09-27T15:13:55.034Z,2.57
2022-09-27T15:19:21.891Z,0.50
2022-09-27T15:22:00.415Z,2.20
2022-09-27T15:27:33.113Z,1.97
2022-09-27T15:30:03.706Z,0.70
2022-09-27T15:32:55.276Z,1.07
2022-09-27T15:35:35.165Z,1.53
2022-09-27T15:38:29.360Z,1.50
2022-09-27T15:41:14.438Z,0.67
2022-09-27T15:43:47.260Z,1.00
2022-09-27T15:46:38.264Z,0.67
2022-09-27T15:49:36.939Z,1.03
2022-09-27T15:52:19.935Z,1.80
2022-09-27T15:55:01.587Z,0.57
2022-09-27T15:57:37.651Z,0.73
2022-09-27T16:06:49.462Z,1.13
2022-09-27T16:09:24.302Z,1.57
2022-09-27T16:11:53.467Z,2.90
2022-09-27T16:14:31.999Z,1.33
2022-09-27T16:17:03.053Z,1.50
2022-09-27T16:19:35.022Z,2.63
2022-09-27T16:22:06.184Z,3.33
2022-09-27T16:24:50.978Z,1.13
2022-09-27T16:27:32.100Z,1.00
2022-09-27T16:30:07.457Z,1.57
2022-09-27T16:32:39.471Z,1.13
2022-09-27T16:35:15.890Z,1.57
2022-09-27T16:37:46.572Z,0.70
2022-09-27T16:40:17.917Z,0.97
2022-09-27T16:42:49.037Z,2.37
2022-09-27T16:45:19.492Z,1.60
2022-09-27T16:47:47.824Z,1.90
2022-09-27T16:50:48.864Z,1.50
2022-09-27T16:53:18.089Z,1.47
2022-09-27T16:55:56.646Z,2.43
2022-09-27T16:58:24.586Z,2.50
2022-09-27T17:00:52.469Z,2.77
2022-09-27T17:03:33.503Z,3.27
2022-09-27T17:06:04.025Z,2.13
2022-09-27T17:08:33.677Z,2.33
2022-09-27T17:11:03.970Z,2.50
2022-09-27T17:13:31.758Z,2.33
2022-09-27T17:16:06.727Z,2.40
2022-09-27T17:18:34.700Z,1.50
2022-09-27T17:21:06.224Z,1.30
2022-09-27T17:23:43.343Z,1.97
2022-09-27T17:26:21.024Z,3.17
2022-09-27T17:28:49.879Z,8.40
2022-09-27T17:31:19.775Z,3.43
2022-09-27T17:33:54.363Z,3.13
2022-09-27T17:36:27.289Z,1.93
2022-09-27T17:41:44.023Z,1.63
2022-09-27T17:44:18.209Z,1.07
2022-09-27T17:46:47.547Z,1.00
2022-09-27T17:49:38.919Z,2.73
2022-09-27T17:52:08.176Z,1.10
2022-09-27T17:54:44.093Z,3.53
2022-09-27T17:57:25.137Z,4.00
2022-09-27T17:59:53.844Z,6.30
2022-09-27T18:02:23.892Z,4.93
2022-09-27T18:04:56.429Z,4.00
2022-09-27T18:07:26.106Z,2.20
2022-09-27T18:09:57.054Z,8.97
2022-09-27T18:12:31.785Z,55.70
2022-09-27T18:14:59.867Z,31.13
2022-09-27T18:17:39.540Z,8.63
2022-09-27T18:20:09.899Z,7.03
2022-09-27T18:22:38.822Z,16.53
2022-09-27T18:25:19.633Z,16.23
2022-09-27T18:27:53.055Z,9.07
2022-09-27T18:30:25.751Z,5.43
2022-09-27T18:32:54.224Z,3.40
2022-09-27T18:35:24.259Z,4.20
2022-09-27T18:37:53.099Z,2.77
2022-09-27T18:40:44.324Z,4.37
2022-09-27T18:43:10.525Z,5.00
2022-09-27T18:45:39.366Z,2.37
2022-09-27T18:48:12.284Z,2.57
2022-09-27T18:50:40.370Z,3.33
2022-09-27T18:53:11.132Z,3.00
2022-09-27T18:55:54.962Z,2.33
2022-09-27T18:58:26.539Z,2.50
2022-09-27T19:01:02.494Z,2.30
2022-09-27T19:03:44.217Z,2.10
2022-09-27T19:06:19.561Z,2.70
2022-09-27T19:08:48.028Z,3.67
2022-09-27T19:11:19.234Z,4.57
2022-09-27T19:13:54.581Z,3.17
2022-09-27T19:16:24.132Z,1.63
2022-09-27T19:18:53.948Z,3.07
2022-09-27T19:21:23.377Z,3.07
2022-09-27T19:23:52.217Z,2.93
2022-09-27T19:26:26.568Z,4.17
2022-09-27T19:28:54.964Z,3.07
2022-09-27T19:31:27.177Z,2.23
2022-09-27T19:34:00.368Z,3.30
2022-09-27T19:36:29.328Z,2.73
2022-09-27T19:39:00.824Z,8.17
2022-09-27T19:41:30.027Z,3.70
2022-09-27T19:43:58.256Z,3.50
2022-09-27T19:46:29.437Z,6.07
2022-09-27T19:48:57.490Z,4.87
2022-09-27T19:51:36.253Z,4.07
2022-09-27T19:54:04.660Z,6.27
2022-09-27T19:56:37.674Z,6.77
2022-09-27T19:59:07.346Z,4.63
2022-09-27T20:01:36.545Z,4.47
2022-09-27T20:04:04.952Z,3.83
2022-09-27T20:06:34.459Z,6.97
2022-09-27T20:09:04.117Z,4.60
2022-09-27T20:11:39.769Z,5.10
2022-09-27T20:14:14.803Z,6.77
2022-09-27T20:16:49.013Z,7.20
2022-09-27T20:19:16.934Z,4.63
2022-09-27T20:21:46.050Z,5.07
2022-09-27T20:24:14.701Z,7.50
2022-09-27T20:26:57.309Z,4.43
2022-09-27T20:29:26.484Z,8.43
2022-09-27T20:32:22.473Z,5.70
2022-09-27T20:34:44.258Z,4.20
2022-09-27T20:37:12.046Z,5.70
2022-09-27T20:39:39.862Z,4.23
2022-09-27T20:42:08.934Z,7.47
2022-09-27T20:44:40.839Z,4.83
2022-09-27T20:47:08.621Z,8.47
2022-09-27T20:49:45.162Z,4.60
2022-09-27T20:52:13.161Z,6.57
2022-09-27T20:54:41.014Z,4.80
2022-09-27T20:57:08.881Z,7.10
2022-09-27T20:59:38.072Z,8.20
2022-09-27T21:02:05.975Z,12.87
2022-09-27T21:04:33.899Z,15.83
2022-09-27T21:07:06.909Z,16.67
2022-09-27T21:09:35.898Z,9.33
2022-09-27T21:12:03.702Z,7.50
2022-09-27T21:14:31.822Z,5.80
2022-09-27T21:17:02.800Z,7.67
2022-09-27T21:19:30.623Z,7.37
2022-09-27T21:21:58.682Z,9.73
2022-09-27T21:24:26.806Z,11.30
2022-09-27T21:27:02.624Z,10.63
2022-09-27T21:29:30.438Z,11.33
2022-09-27T21:31:58.354Z,10.27
2022-09-27T21:34:27.592Z,6.83
2022-09-27T21:36:56.956Z,7.07
2022-09-27T21:39:24.797Z,7.77
2022-09-27T21:41:52.932Z,6.97
2022-09-27T21:44:21.578Z,7.07
2022-09-27T21:46:50.459Z,8.80
2022-09-27T21:49:18.410Z,8.73
2022-09-27T21:51:47.839Z,9.37
2022-09-27T21:54:16.508Z,7.77
2022-09-27T21:56:45.378Z,7.23
2022-09-27T21:59:16.001Z,7.73
2022-09-27T22:01:45.161Z,8.50
2022-09-27T22:04:16.109Z,7.63
2022-09-27T22:06:44.409Z,9.27
2022-09-27T22:09:16.919Z,9.07
2022-09-27T22:11:47.290Z,8.93
2022-09-27T22:14:16.116Z,8.00
2022-09-27T22:16:44.290Z,7.10
2022-09-27T22:19:13.659Z,8.37
2022-09-27T22:21:44.974Z,9.07
2022-09-27T22:24:15.708Z,8.13
2022-09-27T22:26:47.023Z,8.20
2022-09-27T22:29:15.321Z,8.60
2022-09-27T22:31:44.081Z,7.37
2022-09-27T22:34:17.111Z,6.97
2022-09-27T22:36:49.061Z,10.33
2022-09-27T22:39:23.310Z,8.83
2022-09-27T22:41:51.361Z,7.03
2022-09-27T22:44:19.943Z,6.73
2022-09-27T22:46:47.758Z,6.97
2022-09-27T22:49:20.247Z,7.10
2022-09-27T22:51:54.429Z,7.60
2022-09-27T22:54:23.609Z,6.77
2022-09-27T22:57:01.937Z,6.47
2022-09-27T22:59:29.732Z,7.53
2022-09-27T23:01:57.824Z,5.77
2022-09-27T23:04:32.285Z,6.87
2022-09-27T23:07:00.101Z,5.27
2022-09-27T23:09:29.245Z,7.23
2022-09-27T23:11:57.088Z,5.77
2022-09-27T23:14:26.074Z,6.43
2022-09-27T23:16:54.812Z,7.07
2022-09-27T23:19:23.350Z,5.87
2022-09-27T23:21:52.725Z,5.50
2022-09-27T23:24:20.717Z,6.23
2022-09-27T23:27:10.254Z,5.30
2022-09-27T23:29:38.688Z,5.60
2022-09-27T23:32:06.640Z,5.77
2022-09-27T23:34:34.896Z,6.53
2022-09-27T23:37:18.344Z,5.33
2022-09-27T23:39:46.145Z,5.07
2022-09-27T23:42:15.576Z,4.80
2022-09-27T23:44:43.696Z,4.80
2022-09-27T23:47:11.572Z,4.13
2022-09-27T23:49:39.710Z,6.33
2022-09-27T23:52:12.014Z,5.20
2022-09-27T23:55:09.130Z,4.20
2022-09-27T23:57:38.243Z,4.27
